createdAt,value
2024-05-09T00:01:07.800Z,43.52
2024-05-09T00:04:12.453Z,43.62
2024-05-09T00:07:17.170Z,43.64
2024-05-09T00:10:32.682Z,43.84
2024-05-09T00:13:40.487Z,43.51
2024-05-09T00:16:45.281Z,43.57
2024-05-09T00:19:49.920Z,43.80
2024-05-09T00:22:54.705Z,43.91
2024-05-09T00:26:02.039Z,43.68
2024-05-09T00:29:06.807Z,44.17
2024-05-09T00:32:11.525Z,43.88
2024-05-09T00:35:16.331Z,44.03
2024-05-09T00:38:21.093Z,43.92
2024-05-09T00:41:28.429Z,43.88
2024-05-09T00:44:33.114Z,43.71
2024-05-09T00:47:38.072Z,44.00
2024-05-09T00:50:43.932Z,43.56
2024-05-09T00:53:49.073Z,43.72
2024-05-09T00:56:56.321Z,43.83
2024-05-09T01:00:02.403Z,44.06
2024-05-09T01:03:08.246Z,43.60
2024-05-09T01:06:13.316Z,43.74
2024-05-09T01:09:17.983Z,43.93
2024-05-09T01:12:25.302Z,43.85
2024-05-09T01:15:29.984Z,44.11
2024-05-09T01:18:34.702Z,44.19
2024-05-09T01:21:43.177Z,44.50
2024-05-09T01:24:51.985Z,44.22
2024-05-09T01:27:56.619Z,44.32
2024-05-09T01:31:01.218Z,44.25
2024-05-09T01:34:05.809Z,44.01
2024-05-09T01:37:10.411Z,43.85
2024-05-09T01:40:25.184Z,44.04
2024-05-09T01:43:38.217Z,44.12
2024-05-09T01:46:42.801Z,43.70
2024-05-09T01:49:47.664Z,44.10
2024-05-09T01:52:52.316Z,43.99
2024-05-09T01:55:59.587Z,43.95
2024-05-09T01:59:04.943Z,44.27
2024-05-09T02:02:09.973Z,44.24
2024-05-09T02:05:14.815Z,44.37
2024-05-09T02:08:21.537Z,44.33
2024-05-09T02:11:29.145Z,44.07
2024-05-09T02:14:33.840Z,44.31
2024-05-09T02:17:38.743Z,44.56
2024-05-09T02:20:44.833Z,44.32
2024-05-09T02:23:49.477Z,43.99
2024-05-09T02:26:56.738Z,44.11
2024-05-09T02:30:01.725Z,43.98
2024-05-09T02:33:06.812Z,44.19
2024-05-09T02:36:12.615Z,43.89
2024-05-09T02:39:14.675Z,44.47
2024-05-09T02:42:22.230Z,44.20
2024-05-09T02:45:24.909Z,43.88
2024-05-09T02:48:29.682Z,44.14
2024-05-09T02:51:31.710Z,44.55
2024-05-09T02:54:36.280Z,44.32
2024-05-09T02:57:43.905Z,44.38
2024-05-09T03:00:46.156Z,44.01
2024-05-09T03:03:52.267Z,44.00
2024-05-09T03:06:54.320Z,44.22
2024-05-09T03:09:59.675Z,43.90
2024-05-09T03:13:06.312Z,44.10
2024-05-09T03:16:10.887Z,43.98
2024-05-09T03:19:16.112Z,43.88
2024-05-09T03:22:20.906Z,43.86
2024-05-09T03:25:22.915Z,43.85
2024-05-09T03:28:30.086Z,44.45
2024-05-09T03:31:32.126Z,44.34
2024-05-09T03:34:36.947Z,44.62
2024-05-09T03:37:41.500Z,44.22
2024-05-09T03:40:50.532Z,44.50
2024-05-09T03:43:58.234Z,44.33
2024-05-09T03:47:02.842Z,44.15
2024-05-09T03:50:05.927Z,44.03
2024-05-09T03:53:15.823Z,43.99
2024-05-09T03:56:20.449Z,44.00
2024-05-09T03:59:25.224Z,44.33
2024-05-09T04:02:30.049Z,44.23
2024-05-09T04:05:32.958Z,44.35
2024-05-09T04:08:37.821Z,44.19
2024-05-09T04:11:42.750Z,44.04
2024-05-09T04:14:47.412Z,44.02
2024-05-09T04:17:52.146Z,44.33
2024-05-09T04:20:54.327Z,44.29
2024-05-09T04:23:58.919Z,44.57
2024-05-09T04:27:00.904Z,44.38
2024-05-09T04:30:15.402Z,44.35
2024-05-09T04:33:26.648Z,44.35
2024-05-09T04:36:28.845Z,44.27
2024-05-09T04:39:33.449Z,44.41
2024-05-09T04:42:38.044Z,44.46
2024-05-09T04:45:42.655Z,44.16
2024-05-09T04:48:47.270Z,44.24
2024-05-09T04:51:51.874Z,44.55
2024-05-09T04:54:54.807Z,44.55
2024-05-09T04:58:01.137Z,44.31
2024-05-09T05:01:05.809Z,44.57
2024-05-09T05:04:10.705Z,44.68
2024-05-09T05:07:12.721Z,44.64
2024-05-09T05:10:25.120Z,44.99
2024-05-09T05:13:31.809Z,44.81
2024-05-09T05:16:39.182Z,44.40
2024-05-09T05:19:41.393Z,44.71
2024-05-09T05:22:47.929Z,44.45
2024-05-09T05:25:51.365Z,44.53
2024-05-09T05:28:56.122Z,44.20
2024-05-09T05:32:00.849Z,44.38
2024-05-09T05:35:05.549Z,44.29
2024-05-09T05:38:08.911Z,44.52
2024-05-09T05:41:13.592Z,44.32
2024-05-09T05:44:15.952Z,44.29
2024-05-09T05:47:24.872Z,44.54
2024-05-09T05:50:32.704Z,44.99
2024-05-09T05:53:41.056Z,44.86
2024-05-09T05:56:43.191Z,44.63
2024-05-09T05:59:47.899Z,44.94
2024-05-09T06:02:53.101Z,44.90
2024-05-09T06:05:58.435Z,44.55
2024-05-09T06:09:00.492Z,44.97
2024-05-09T06:12:05.314Z,44.89
2024-05-09T06:15:07.954Z,44.87
2024-05-09T06:18:17.687Z,44.52
2024-05-09T06:21:20.024Z,44.69
2024-05-09T06:24:24.640Z,44.78
2024-05-09T06:27:29.237Z,44.34
2024-05-09T06:30:38.705Z,44.74
2024-05-09T06:33:48.437Z,44.88
2024-05-09T06:36:50.736Z,44.63
2024-05-09T06:39:55.316Z,45.23
2024-05-09T06:43:00.719Z,45.18
2024-05-09T06:46:02.748Z,44.99
2024-05-09T06:49:11.598Z,44.93
2024-05-09T06:52:14.421Z,45.06
2024-05-09T06:55:18.988Z,44.65
2024-05-09T06:58:21.125Z,45.07
2024-05-09T07:01:25.834Z,44.71
2024-05-09T07:04:33.309Z,45.58
2024-05-09T07:07:35.315Z,47.06
2024-05-09T07:10:39.883Z,49.05
2024-05-09T07:13:44.740Z,49.41
2024-05-09T07:16:46.821Z,48.75
2024-05-09T07:19:54.348Z,49.75
2024-05-09T07:22:58.950Z,48.93
2024-05-09T07:26:03.591Z,48.49
2024-05-09T07:29:05.657Z,47.72
2024-05-09T07:32:10.503Z,47.54
2024-05-09T07:35:15.194Z,47.24
2024-05-09T07:38:20.259Z,47.56
2024-05-09T07:41:22.305Z,47.52
2024-05-09T07:44:26.907Z,47.35
2024-05-09T07:48:57.384Z,47.82
2024-05-09T07:53:00.777Z,47.54
2024-05-09T07:54:23.552Z,47.62
2024-05-09T07:57:25.703Z,47.40
2024-05-09T08:00:31.984Z,46.88
2024-05-09T08:03:34.439Z,47.27
2024-05-09T08:06:42.601Z,47.00
2024-05-09T08:09:46.067Z,46.69
2024-05-09T08:12:50.825Z,46.55
2024-05-09T08:15:52.986Z,46.99
2024-05-09T08:18:57.887Z,46.98
2024-05-09T08:22:07.153Z,46.84
2024-05-09T08:25:10.675Z,46.68
2024-05-09T08:28:16.713Z,46.39
2024-05-09T08:31:18.784Z,46.21
2024-05-09T08:34:23.444Z,46.48
2024-05-09T08:37:32.805Z,46.31
2024-05-09T08:40:41.560Z,46.25
2024-05-09T08:43:44.749Z,46.26
2024-05-09T08:46:50.433Z,46.44
2024-05-09T08:49:58.678Z,46.41
2024-05-09T08:53:03.417Z,46.35
2024-05-09T08:56:12.363Z,46.55
2024-05-09T08:59:23.568Z,46.90
2024-05-09T09:02:30.072Z,46.78
2024-05-09T09:05:37.101Z,46.80
2024-05-09T09:08:44.488Z,47.09
2024-05-09T09:11:49.076Z,47.70
2024-05-09T09:14:51.092Z,47.72
2024-05-09T09:18:00.179Z,47.41
2024-05-09T09:21:05.451Z,47.56
2024-05-09T09:24:10.419Z,47.66
2024-05-09T09:27:16.687Z,47.34
2024-05-09T09:30:31.490Z,47.32
2024-05-09T09:33:45.022Z,47.10
2024-05-09T09:36:48.809Z,47.75
2024-05-09T09:40:31.937Z,47.24
2024-05-09T09:43:36.418Z,47.21
2024-05-09T09:46:42.076Z,47.03
2024-05-09T09:49:46.172Z,46.86
2024-05-09T09:52:54.687Z,46.97
2024-05-09T09:56:00.601Z,46.79
2024-05-09T09:59:07.311Z,47.02
2024-05-09T10:02:13.873Z,46.96
2024-05-09T10:05:16.947Z,47.06
2024-05-09T10:08:22.122Z,46.77
2024-05-09T10:11:30.207Z,46.78
2024-05-09T10:14:43.230Z,46.73
2024-05-09T10:17:50.941Z,46.51
2024-05-09T10:20:56.030Z,46.39
2024-05-09T10:23:59.544Z,46.61
2024-05-09T10:27:07.020Z,46.31
2024-05-09T10:30:14.662Z,46.52
2024-05-09T10:33:25.989Z,46.65
2024-05-09T10:36:31.944Z,46.65
2024-05-09T10:39:36.203Z,46.51
2024-05-09T10:42:44.464Z,46.51
2024-05-09T10:45:46.515Z,46.74
2024-05-09T10:48:51.279Z,46.57
2024-05-09T10:51:53.431Z,46.62
2024-05-09T10:54:59.923Z,46.60
2024-05-09T10:58:05.553Z,46.33
2024-05-09T11:01:11.298Z,46.44
2024-05-09T11:04:14.430Z,46.35
2024-05-09T11:07:21.597Z,46.59
2024-05-09T11:10:27.898Z,46.60
2024-05-09T11:13:42.316Z,46.36
2024-05-09T11:16:46.903Z,46.52
2024-05-09T11:19:50.786Z,46.66
2024-05-09T11:22:55.413Z,46.73
2024-05-09T11:25:58.772Z,46.48
2024-05-09T11:29:06.109Z,46.74
2024-05-09T11:32:08.883Z,46.50
2024-05-09T11:35:13.534Z,46.51
2024-05-09T11:38:18.411Z,46.11
2024-05-09T11:41:20.498Z,46.30
2024-05-09T11:44:27.972Z,46.30
2024-05-09T11:50:37.658Z,46.13
2024-05-09T11:53:39.667Z,45.91
2024-05-09T11:56:44.277Z,46.33
2024-05-09T11:59:51.516Z,46.29
2024-05-09T12:02:54.330Z,46.08
2024-05-09T12:05:59.394Z,46.34
2024-05-09T12:09:01.651Z,46.05
2024-05-09T12:12:07.684Z,46.20
2024-05-09T12:15:12.395Z,46.33
2024-05-09T12:18:17.246Z,46.04
2024-05-09T12:21:21.849Z,46.35
2024-05-09T12:24:25.127Z,46.20
2024-05-09T12:27:29.810Z,46.74
2024-05-09T12:30:38.143Z,46.82
2024-05-09T12:33:45.041Z,47.08
2024-05-09T12:36:47.170Z,46.74
2024-05-09T12:39:51.832Z,47.00
2024-05-09T12:42:53.940Z,47.02
2024-05-09T12:46:01.574Z,46.97
2024-05-09T12:49:06.978Z,46.64
2024-05-09T12:52:09.425Z,46.70
2024-05-09T12:55:14.341Z,46.27
2024-05-09T12:58:17.320Z,46.69
2024-05-09T13:01:25.053Z,46.31
2024-05-09T13:04:27.279Z,46.17
2024-05-09T13:07:32.131Z,45.96
2024-05-09T13:10:36.816Z,46.38
2024-05-09T13:16:46.048Z,45.92
2024-05-09T13:19:48.035Z,45.92
2024-05-09T13:22:52.611Z,46.46
2024-05-09T13:25:57.292Z,46.39
2024-05-09T13:28:59.371Z,46.44
2024-05-09T13:32:07.133Z,46.09
2024-05-09T13:35:09.223Z,46.16
2024-05-09T13:38:13.992Z,46.67
2024-05-09T13:41:18.579Z,46.25
2024-05-09T13:44:20.510Z,46.19
2024-05-09T13:47:28.003Z,46.65
2024-05-09T13:50:34.519Z,46.17
2024-05-09T13:53:41.159Z,46.31
2024-05-09T13:56:43.191Z,46.03
2024-05-09T13:59:47.856Z,46.16
2024-05-09T14:02:52.498Z,46.29
2024-05-09T14:05:57.316Z,46.27
2024-05-09T14:08:59.443Z,46.11
2024-05-09T14:12:04.008Z,46.45
2024-05-09T14:15:06.520Z,46.37
2024-05-09T14:18:14.563Z,46.61
2024-05-09T14:21:19.525Z,46.32
2024-05-09T14:24:21.539Z,46.24
2024-05-09T14:27:26.256Z,46.11
2024-05-09T14:30:34.897Z,46.29
2024-05-09T14:33:45.252Z,46.44
2024-05-09T14:36:47.358Z,46.31
2024-05-09T14:39:51.983Z,46.09
2024-05-09T14:42:54.061Z,46.05
2024-05-09T14:45:59.371Z,46.22
2024-05-09T14:49:04.484Z,46.03
2024-05-09T14:52:09.536Z,46.09
2024-05-09T14:55:12.426Z,46.01
2024-05-09T14:58:17.424Z,46.23
2024-05-09T15:01:20.566Z,46.03
2024-05-09T15:04:28.603Z,46.25
2024-05-09T15:07:30.698Z,46.37
2024-05-09T15:10:36.896Z,46.24
2024-05-09T15:13:42.518Z,46.34
2024-05-09T15:16:44.658Z,46.28
2024-05-09T15:19:52.232Z,46.24
2024-05-09T15:22:54.220Z,46.37
2024-05-09T15:25:58.823Z,46.19
2024-05-09T15:29:00.791Z,46.25
2024-05-09T15:32:05.528Z,46.29
2024-05-09T15:35:10.394Z,45.93
2024-05-09T15:38:17.929Z,46.18
2024-05-09T15:41:22.800Z,46.34
2024-05-09T15:44:25.545Z,46.08
2024-05-09T15:47:30.696Z,46.03
2024-05-09T15:50:41.008Z,46.40
2024-05-09T15:53:44.391Z,46.28
2024-05-09T15:56:50.887Z,45.89
2024-05-09T15:59:52.991Z,46.21
2024-05-09T16:02:57.690Z,46.33
2024-05-09T16:06:02.442Z,46.31
2024-05-09T16:09:07.320Z,45.89
2024-05-09T16:12:09.311Z,46.11
2024-05-09T16:15:13.911Z,45.75
2024-05-09T16:18:16.098Z,46.08
2024-05-09T16:21:23.327Z,45.79
2024-05-09T16:24:25.273Z,45.78
2024-05-09T16:27:30.120Z,45.91
2024-05-09T16:30:35.407Z,46.08
2024-05-09T16:33:41.141Z,45.83
2024-05-09T16:36:45.988Z,46.17
2024-05-09T16:39:50.675Z,46.10
2024-05-09T16:42:52.824Z,46.29
2024-05-09T16:45:57.492Z,46.45
2024-05-09T16:49:02.218Z,46.41
2024-05-09T16:52:09.860Z,45.85
2024-05-09T16:55:12.096Z,45.83
2024-05-09T16:58:16.982Z,46.04
2024-05-09T17:01:19.180Z,46.33
2024-05-09T17:04:23.966Z,45.91
2024-05-09T17:07:31.332Z,45.87
2024-05-09T17:10:35.092Z,46.00
2024-05-09T17:13:40.935Z,45.91
2024-05-09T17:16:45.611Z,46.34
2024-05-09T17:19:50.499Z,45.96
2024-05-09T17:22:55.213Z,45.94
2024-05-09T17:25:59.907Z,46.15
2024-05-09T17:29:05.375Z,46.13
2024-05-09T17:32:08.234Z,46.28
2024-05-09T17:35:12.902Z,45.96
2024-05-09T17:38:17.686Z,45.78
2024-05-09T17:41:22.273Z,46.36
2024-05-09T17:44:24.258Z,45.92
2024-05-09T17:47:28.934Z,46.03
2024-05-09T17:50:35.397Z,45.72
2024-05-09T17:53:44.499Z,45.85
2024-05-09T17:56:46.973Z,46.20
2024-05-09T17:59:53.943Z,45.83
2024-05-09T18:02:56.001Z,46.10
2024-05-09T18:06:00.981Z,45.88
2024-05-09T18:09:08.617Z,45.91
2024-05-09T18:12:10.581Z,46.00
2024-05-09T18:15:15.234Z,46.11
2024-05-09T18:18:17.394Z,46.42
2024-05-09T18:21:22.007Z,45.97
2024-05-09T18:24:26.746Z,46.08
2024-05-09T18:27:31.518Z,46.23
2024-05-09T18:30:36.425Z,46.01
2024-05-09T18:33:42.059Z,46.05
2024-05-09T18:36:44.328Z,46.03
2024-05-09T18:39:51.629Z,45.99
2024-05-09T18:42:56.522Z,45.93
2024-05-09T18:46:01.253Z,46.03
2024-05-09T18:49:03.557Z,45.69
2024-05-09T18:52:09.131Z,45.94
2024-05-09T18:55:14.292Z,45.96
2024-05-09T18:58:19.319Z,46.00
2024-05-09T19:01:21.507Z,46.00
2024-05-09T19:04:26.524Z,45.94
2024-05-09T19:07:28.603Z,46.04
2024-05-09T19:10:36.509Z,45.88
2024-05-09T19:13:38.785Z,45.73
2024-05-09T19:16:44.720Z,46.18
2024-05-09T19:19:47.343Z,45.88
2024-05-09T19:22:52.174Z,45.89
2024-05-09T19:25:56.887Z,45.73
2024-05-09T19:29:01.486Z,45.67
2024-05-09T19:32:03.954Z,45.99
2024-05-09T19:35:09.123Z,45.54
2024-05-09T19:38:13.943Z,45.71
2024-05-09T19:41:18.519Z,46.00
2024-05-09T19:44:23.146Z,46.01
2024-05-09T19:47:26.488Z,45.95
2024-05-09T19:50:37.860Z,45.55
2024-05-09T19:53:44.669Z,45.87
2024-05-09T19:56:51.970Z,45.59
2024-05-09T19:59:56.571Z,45.48
2024-05-09T20:03:01.301Z,45.77
2024-05-09T20:06:03.684Z,45.84
2024-05-09T20:09:08.232Z,45.95
2024-05-09T20:12:12.826Z,45.92
2024-05-09T20:15:17.481Z,45.40
2024-05-09T20:18:22.324Z,45.85
2024-05-09T20:21:24.687Z,45.77
2024-05-09T20:24:29.276Z,45.71
2024-05-09T20:27:33.932Z,45.70
2024-05-09T20:30:38.982Z,46.12
2024-05-09T20:33:43.983Z,45.73
2024-05-09T20:36:45.991Z,45.77
2024-05-09T20:39:50.582Z,45.83
2024-05-09T20:42:55.300Z,45.51
2024-05-09T20:46:00.184Z,45.59
2024-05-09T20:49:02.413Z,45.52
2024-05-09T20:52:07.651Z,45.60
2024-05-09T20:55:09.693Z,45.74
2024-05-09T20:58:17.271Z,45.44
2024-05-09T21:01:19.382Z,45.31
2024-05-09T21:04:24.278Z,45.60
2024-05-09T21:07:26.373Z,45.68
2024-05-09T21:10:33.342Z,45.44
2024-05-09T21:13:38.826Z,45.83
2024-05-09T21:16:43.612Z,45.77
2024-05-09T21:19:49.318Z,45.52
2024-05-09T21:22:51.284Z,45.55
2024-05-09T21:25:55.872Z,45.67
2024-05-09T21:29:00.531Z,45.81
2024-05-09T21:32:05.167Z,45.40
2024-05-09T21:35:07.585Z,45.33
2024-05-09T21:38:13.506Z,45.85
2024-05-09T21:41:15.906Z,45.40
2024-05-09T21:44:23.424Z,45.95
2024-05-09T21:47:25.772Z,45.50
2024-05-09T21:50:37.057Z,45.22
2024-05-09T21:53:42.772Z,45.90
2024-05-09T21:56:47.402Z,45.42
2024-05-09T21:59:54.878Z,45.24
2024-05-09T22:02:57.891Z,45.75
2024-05-09T22:06:03.375Z,45.65
2024-05-09T22:09:05.736Z,45.53
2024-05-09T22:12:10.343Z,45.83
2024-05-09T22:15:15.029Z,45.63
2024-05-09T22:18:19.688Z,45.67
2024-05-09T22:21:21.726Z,45.40
2024-05-09T22:24:26.318Z,45.87
2024-05-09T22:27:28.361Z,45.60
2024-05-09T22:30:39.038Z,45.41
2024-05-09T22:33:47.883Z,45.56
2024-05-09T22:36:50.451Z,45.40
2024-05-09T22:39:55.495Z,45.45
2024-05-09T22:42:57.600Z,45.83
2024-05-09T22:46:05.245Z,45.25
2024-05-09T22:49:10.040Z,45.87
2024-05-09T22:52:14.844Z,45.95
2024-05-09T22:55:16.903Z,46.01
2024-05-09T22:58:22.199Z,45.74
2024-05-09T23:01:27.663Z,45.64
2024-05-09T23:04:32.463Z,45.67
2024-05-09T23:07:34.470Z,45.89
2024-05-09T23:10:39.256Z,45.57
2024-05-09T23:13:41.294Z,45.46
2024-05-09T23:16:48.802Z,45.46
2024-05-09T23:19:53.371Z,45.49
2024-05-09T23:22:57.976Z,45.34
2024-05-09T23:26:02.552Z,45.21
2024-05-09T23:29:04.555Z,45.69
2024-05-09T23:32:12.118Z,45.35
2024-05-09T23:35:14.122Z,45.62
2024-05-09T23:38:21.747Z,45.72
2024-05-09T23:41:27.979Z,45.96
2024-05-09T23:44:32.557Z,45.57
2024-05-09T23:47:37.713Z,45.82
2024-05-09T23:50:42.339Z,45.71
2024-05-09T23:53:44.959Z,45.62
2024-05-09T23:56:49.537Z,45.60
2024-05-09T23:59:51.545Z,45.67
